Time;durP1;ratioP1;P1;durP2;ratioP2;P2;SDS_P1;SDS_P2;PMS_P1;PMS_P2;Temp;Humidity;BMP_temperature;BMP_pressure;BME280_temperature;BME280_humidity;BME280_pressure;Samples;Min_cycle;Max_cycle;Signal;HPM_P1;HPM_P2
2023/06/23 00:02:19;;;;;;;1.83;1.10;;;21.40;1.00;;;;;;5057095;28;20174;-82
2023/06/23 00:04:44;;;;;;;1.42;1.15;;;21.30;1.00;;;;;;5059098;22;20226;-84
2023/06/23 00:07:10;;;;;;;1.00;1.00;;;21.20;1.00;;;;;;5032316;28;20175;-84
2023/06/23 00:09:39;;;;;;;1.20;1.10;;;21.10;1.00;;;;;;5032323;28;20185;-80
2023/06/23 00:12:08;;;;;;;2.42;1.15;;;20.90;1.00;;;;;;5032472;28;20174;-85
2023/06/23 00:14:34;;;;;;;1.10;1.00;;;21.00;1.00;;;;;;5032471;28;20224;-84
2023/06/23 00:17:00;;;;;;;1.10;1.00;;;21.00;1.00;;;;;;5033640;28;20182;-83
2023/06/23 00:19:26;;;;;;;1.95;1.00;;;20.90;1.00;;;;;;5033436;28;20284;-85
2023/06/23 00:21:52;;;;;;;1.00;1.00;;;21.00;1.00;;;;;;5033449;28;20248;-84
2023/06/23 00:24:18;;;;;;;1.20;1.10;;;20.80;1.00;;;;;;5033379;28;20191;-83
2023/06/23 00:26:43;;;;;;;2.03;0.93;;;20.80;1.00;;;;;;5032540;28;20190;-84
2023/06/23 00:29:10;;;;;;;1.00;1.00;;;20.70;1.00;;;;;;5033256;28;20710;-85
2023/06/23 00:31:36;;;;;;;1.48;1.00;;;20.60;1.00;;;;;;5033528;28;20174;-84
2023/06/23 00:34:02;;;;;;;1.63;1.10;;;20.60;1.00;;;;;;5031961;28;20671;-83
2023/06/23 00:36:30;;;;;;;1.33;1.10;;;20.50;1.00;;;;;;5033293;28;20648;-84
2023/06/23 00:38:56;;;;;;;1.40;1.13;;;20.60;1.00;;;;;;5032931;28;20162;-83
2023/06/23 00:41:21;;;;;;;1.25;1.15;;;20.50;1.00;;;;;;5033076;28;20167;-84
2023/06/23 00:43:50;;;;;;;2.15;1.45;;;20.50;1.00;;;;;;5031681;28;20170;-84
2023/06/23 00:46:21;;;;;;;1.50;1.40;;;20.50;1.00;;;;;;5031423;28;20170;-84
2023/06/23 00:48:48;;;;;;;2.88;1.30;;;20.40;1.00;;;;;;5031632;28;20170;-84
2023/06/23 00:51:15;;;;;;;2.10;1.50;;;20.30;1.00;;;;;;5031710;28;20189;-84
2023/06/23 00:53:48;;;;;;;1.60;1.50;;;20.20;1.00;;;;;;5035883;28;20718;-84
2023/06/23 00:56:18;;;;;;;2.00;1.90;;;20.20;40.70;;;;;;5044327;28;20182;-84
2023/06/23 00:58:45;;;;;;;2.08;1.88;;;20.20;76.10;;;;;;5047183;28;20169;-84
2023/06/23 01:01:13;;;;;;;2.43;1.70;;;20.00;10.50;;;;;;5056166;28;20225;-84
2023/06/23 01:03:40;;;;;;;1.85;1.75;;;20.00;42.30;;;;;;5055029;28;20173;-84
2023/06/23 01:06:46;;;;;;;1.88;1.70;;;20.10;1.00;;;;;;5056503;28;20209;-84
2023/06/23 01:09:36;;;;;;;2.58;1.90;;;20.10;1.00;;;;;;5056551;28;20192;-82
2023/06/23 01:12:22;;;;;;;3.30;1.93;;;20.00;1.00;;;;;;5039445;28;20170;-82
2023/06/23 01:15:18;;;;;;;1.87;1.73;;;19.90;1.00;;;;;;5015698;28;20198;-82
2023/06/23 01:17:51;;;;;;;2.73;1.80;;;19.80;1.00;;;;;;5016791;28;20179;-82
2023/06/23 01:20:22;;;;;;;2.00;1.80;;;19.80;1.00;;;;;;5015406;28;20207;-82
2023/06/23 01:23:02;;;;;;;2.37;2.00;;;19.80;1.00;;;;;;5016997;28;20174;-82
2023/06/23 01:26:02;;;;;;;2.40;1.93;;;19.80;1.00;;;;;;5015309;28;20278;-81
2023/06/23 01:28:46;;;;;;;2.10;1.80;;;19.60;1.00;;;;;;5015563;28;20182;-82
2023/06/23 01:31:39;;;;;;;2.60;1.63;;;19.50;20.80;;;;;;5014668;28;20175;-81
2023/06/23 01:34:08;;;;;;;1.90;1.70;;;19.50;95.20;;;;;;5014984;28;20191;-82
2023/06/23 01:36:37;;;;;;;2.10;1.90;;;19.30;99.90;;;;;;5015226;28;20262;-82
2023/06/23 01:39:05;;;;;;;2.10;1.90;;;19.20;99.90;;;;;;5016435;28;20174;-82
2023/06/23 01:41:37;;;;;;;2.40;2.20;;;19.00;99.90;;;;;;5015291;28;20171;-81
2023/06/23 01:44:13;;;;;;;2.50;2.30;;;18.80;99.90;;;;;;5016433;28;20249;-81
2023/06/23 01:46:41;;;;;;;3.17;2.50;;;18.90;99.90;;;;;;5015406;28;20265;-82
2023/06/23 01:49:11;;;;;;;3.97;2.60;;;18.80;99.90;;;;;;5014803;28;20217;-82
2023/06/23 01:51:44;;;;;;;2.73;2.53;;;18.70;99.90;;;;;;5014989;28;20207;-82
2023/06/23 01:54:12;;;;;;;3.37;2.77;;;18.70;99.90;;;;;;5016490;28;20579;-83
2023/06/23 01:56:40;;;;;;;3.70;3.10;;;18.60;99.90;;;;;;5015193;28;20175;-81
2023/06/23 01:59:08;;;;;;;3.70;2.90;;;18.60;99.90;;;;;;5022267;28;20249;-80
2023/06/23 02:01:35;;;;;;;3.60;3.30;;;18.50;99.90;;;;;;5047381;28;20220;-82
2023/06/23 02:04:03;;;;;;;3.53;3.10;;;18.30;99.90;;;;;;5055872;28;20170;-82
2023/06/23 02:06:31;;;;;;;3.73;3.20;;;18.20;99.90;;;;;;5054155;28;20166;-82
2023/06/23 02:08:58;;;;;;;3.67;3.10;;;18.20;99.90;;;;;;5054556;28;20589;-81
2023/06/23 02:11:25;;;;;;;3.60;3.30;;;18.10;99.90;;;;;;5055722;28;20180;-82
2023/06/23 02:13:52;;;;;;;4.17;3.77;;;18.00;99.90;;;;;;5054203;28;20253;-82
2023/06/23 02:16:18;;;;;;;4.07;3.50;;;18.00;99.90;;;;;;5055658;28;20161;-82
2023/06/23 02:18:45;;;;;;;3.67;3.20;;;18.10;99.90;;;;;;5054393;28;20652;-82
2023/06/23 02:21:13;;;;;;;3.57;3.10;;;18.20;99.90;;;;;;5054331;28;20206;-81
2023/06/23 02:23:39;;;;;;;3.50;3.13;;;18.20;99.90;;;;;;5051705;28;20219;-81
2023/06/23 02:26:06;;;;;;;3.27;2.93;;;18.20;99.90;;;;;;5039765;28;20212;-82
2023/06/23 02:28:32;;;;;;;3.10;2.80;;;18.20;99.90;;;;;;5033839;28;20281;-82
2023/06/23 02:30:59;;;;;;;3.20;2.90;;;18.20;99.90;;;;;;5041789;28;20178;-82
2023/06/23 02:33:25;;;;;;;3.60;3.07;;;18.10;99.90;;;;;;5054108;28;20553;-82
2023/06/23 02:35:55;;;;;;;3.27;2.97;;;18.00;99.90;;;;;;5053788;28;20197;-82
2023/06/23 02:38:24;;;;;;;4.77;2.50;;;18.10;99.90;;;;;;5053509;28;20182;-81
2023/06/23 02:40:51;;;;;;;5.10;2.90;;;18.00;76.50;;;;;;5053373;28;20228;-82
2023/06/23 02:43:23;;;;;;;3.37;2.70;;;18.10;77.60;;;;;;5053706;28;20189;-83
2023/06/23 02:45:54;;;;;;;3.33;2.67;;;18.10;9.30;;;;;;5055225;28;20193;-82
2023/06/23 02:48:24;;;;;;;3.10;2.83;;;18.00;1.00;;;;;;5055459;28;20170;-83
2023/06/23 02:50:53;;;;;;;2.90;2.60;;;18.10;1.00;;;;;;5053536;28;20180;-82
2023/06/23 02:53:22;;;;;;;2.90;2.60;;;18.10;4.10;;;;;;5055067;28;20681;-82
2023/06/23 02:55:53;;;;;;;4.23;2.47;;;18.00;6.60;;;;;;5053344;28;20197;-81
2023/06/23 02:58:19;;;;;;;2.97;2.50;;;18.00;1.00;;;;;;5055238;28;20276;-81
2023/06/23 03:00:46;;;;;;;2.57;2.30;;;17.90;3.50;;;;;;5053681;28;20231;-82
2023/06/23 03:03:15;;;;;;;2.57;2.37;;;17.80;39.60;;;;;;5054372;28;20170;-82
2023/06/23 03:05:41;;;;;;;2.53;2.23;;;17.90;51.60;;;;;;5054746;28;20625;-82
2023/06/23 03:08:07;;;;;;;2.83;2.53;;;17.80;42.20;;;;;;5054951;28;20199;-82
2023/06/23 03:10:33;;;;;;;3.70;2.83;;;17.70;99.90;;;;;;5053222;28;20178;-82
2023/06/23 03:13:01;;;;;;;3.53;2.50;;;17.70;99.90;;;;;;5054459;28;20181;-81
2023/06/23 03:15:28;;;;;;;4.00;2.77;;;17.80;68.20;;;;;;5054450;28;20228;-82
2023/06/23 03:18:03;;;;;;;3.27;2.57;;;17.80;63.50;;;;;;5052161;28;20181;-82
2023/06/23 03:20:39;;;;;;;3.13;2.70;;;17.80;45.80;;;;;;5052539;28;20253;-82
2023/06/23 03:23:11;;;;;;;3.27;2.80;;;17.80;23.80;;;;;;5053089;28;20426;-81
2023/06/23 03:25:37;;;;;;;3.37;2.80;;;17.70;34.20;;;;;;5052876;28;20201;-82
2023/06/23 03:28:08;;;;;;;4.37;2.50;;;17.60;46.30;;;;;;5052995;28;20174;-81
2023/06/23 03:30:39;;;;;;;2.93;2.37;;;17.70;1.00;;;;;;5052788;28;20185;-82
2023/06/23 03:33:12;;;;;;;4.80;2.40;;;17.70;1.00;;;;;;5054163;28;20208;-81
2023/06/23 03:35:43;;;;;;;2.73;2.30;;;17.70;1.00;;;;;;5054135;28;20250;-81
2023/06/23 03:38:14;;;;;;;2.67;2.20;;;17.70;1.00;;;;;;5052432;28;20579;-81
2023/06/23 03:40:48;;;;;;;2.70;2.40;;;17.60;1.00;;;;;;5053377;28;20208;-83
2023/06/23 03:43:23;;;;;;;2.77;2.30;;;17.50;66.40;;;;;;5052311;28;20173;-81
2023/06/23 03:45:54;;;;;;;2.20;2.00;;;17.40;99.90;;;;;;5053312;28;20279;-81
2023/06/23 03:48:22;;;;;;;2.33;2.03;;;17.30;99.90;;;;;;5052411;28;20227;-81
2023/06/23 03:50:51;;;;;;;2.30;2.10;;;17.20;99.90;;;;;;5051988;28;20227;-81
2023/06/23 03:53:18;;;;;;;3.03;2.40;;;17.10;99.90;;;;;;5053770;28;20177;-81
2023/06/23 03:55:45;;;;;;;2.53;2.33;;;17.00;99.90;;;;;;5053804;28;20287;-81
2023/06/23 03:58:12;;;;;;;3.70;2.50;;;16.90;99.90;;;;;;5053604;28;20181;-81
2023/06/23 04:00:39;;;;;;;3.40;2.40;;;16.90;99.90;;;;;;5053460;28;20285;-82
2023/06/23 04:03:07;;;;;;;2.83;2.53;;;16.80;99.90;;;;;;5054132;28;20236;-82
2023/06/23 04:05:35;;;;;;;2.60;2.40;;;16.80;99.90;;;;;;5054005;28;20353;-82
2023/06/23 04:08:03;;;;;;;2.60;2.40;;;16.90;99.90;;;;;;5052759;28;20174;-81
2023/06/23 04:10:30;;;;;;;3.30;2.57;;;16.90;99.90;;;;;;5051983;28;20173;-82
2023/06/23 04:12:57;;;;;;;2.70;2.30;;;16.90;99.90;;;;;;5053747;28;20192;-82
2023/06/23 04:15:25;;;;;;;2.73;2.20;;;16.80;99.90;;;;;;5052454;28;20202;-82
2023/06/23 04:17:53;;;;;;;2.60;2.40;;;16.80;99.90;;;;;;5053912;28;20177;-81
2023/06/23 04:20:21;;;;;;;3.13;2.00;;;16.80;99.90;;;;;;5053547;28;20246;-81
2023/06/23 04:22:49;;;;;;;2.20;2.00;;;16.70;99.90;;;;;;5052564;28;20174;-81
2023/06/23 04:25:18;;;;;;;2.50;2.00;;;16.60;99.90;;;;;;5054057;28;20193;-81
2023/06/23 04:27:45;;;;;;;2.20;1.93;;;16.70;99.90;;;;;;5053727;28;20173;-81
2023/06/23 04:30:12;;;;;;;2.07;1.87;;;16.70;99.90;;;;;;5053573;28;20187;-82
2023/06/23 04:32:38;;;;;;;2.13;1.80;;;16.60;99.90;;;;;;5051727;28;20174;-81
2023/06/23 04:35:05;;;;;;;1.87;1.60;;;16.70;99.90;;;;;;5051926;28;20574;-82
2023/06/23 04:37:39;;;;;;;2.00;1.60;;;16.70;99.90;;;;;;5046804;28;20258;-81
2023/06/23 04:40:10;;;;;;;1.70;1.60;;;16.70;99.90;;;;;;5033599;28;20206;-82
2023/06/23 04:43:01;;;;;;;1.60;1.50;;;16.80;99.90;;;;;;5032517;28;20174;-83
2023/06/23 04:45:28;;;;;;;1.53;1.43;;;16.90;99.90;;;;;;5031808;28;20203;-82
2023/06/23 04:47:59;;;;;;;1.90;1.47;;;16.90;99.90;;;;;;5032425;28;20228;-82
2023/06/23 04:50:28;;;;;;;1.30;1.20;;;16.90;99.90;;;;;;5031951;28;20183;-82
2023/06/23 04:53:00;;;;;;;2.23;1.60;;;17.00;99.90;;;;;;5031189;28;20189;-78
2023/06/23 04:55:30;;;;;;;1.40;1.30;;;17.10;99.90;;;;;;5031228;28;20240;-77
2023/06/23 04:57:58;;;;;;;1.63;1.30;;;17.00;99.90;;;;;;5031928;28;20225;-77
2023/06/23 05:00:25;;;;;;;1.67;1.10;;;17.10;99.90;;;;;;5031944;28;20237;-78
2023/06/23 05:02:55;;;;;;;1.10;1.00;;;17.00;99.90;;;;;;5030508;28;20225;-80
2023/06/23 05:05:24;;;;;;;1.60;1.00;;;17.00;99.90;;;;;;5030931;28;20216;-81
2023/06/23 05:07:52;;;;;;;1.17;1.10;;;16.90;99.90;;;;;;5030656;28;20178;-80
2023/06/23 05:10:20;;;;;;;0.93;0.90;;;16.80;99.90;;;;;;5031769;28;20266;-80
2023/06/23 05:12:49;;;;;;;5.40;1.20;;;16.80;99.90;;;;;;5030910;28;20570;-80
2023/06/23 05:15:17;;;;;;;1.10;0.87;;;16.80;99.90;;;;;;5030666;28;20226;-75
2023/06/23 05:17:46;;;;;;;1.00;0.90;;;16.80;99.90;;;;;;5031800;28;20182;-81
2023/06/23 05:20:14;;;;;;;1.40;1.00;;;16.90;99.90;;;;;;5030470;28;20213;-79
2023/06/23 05:22:43;;;;;;;1.13;1.03;;;16.80;99.90;;;;;;5030315;28;20262;-78
2023/06/23 05:25:10;;;;;;;0.90;0.90;;;16.70;99.90;;;;;;5030414;28;20195;-78
2023/06/23 05:27:37;;;;;;;1.00;1.00;;;16.70;99.90;;;;;;5030230;28;20724;-78
2023/06/23 05:30:07;;;;;;;1.63;1.00;;;16.70;99.90;;;;;;5031289;28;20261;-79
2023/06/23 05:32:34;;;;;;;1.30;1.20;;;;;;;;;;5030236;28;20329;-78
2023/06/23 05:35:03;;;;;;;1.07;0.97;;;16.70;99.90;;;;;;5031435;28;20287;-80
2023/06/23 05:37:31;;;;;;;1.73;1.07;;;16.60;99.90;;;;;;5031429;28;20179;-79
2023/06/23 05:39:57;;;;;;;1.83;1.10;;;16.70;99.90;;;;;;5031601;28;20205;-80
2023/06/23 05:42:23;;;;;;;0.83;0.83;;;16.70;99.90;;;;;;5033633;28;20174;-78
2023/06/23 05:44:48;;;;;;;1.10;1.00;;;16.70;99.90;;;;;;5033788;28;20198;-80
2023/06/23 05:47:20;;;;;;;0.93;0.90;;;16.70;99.90;;;;;;5033704;28;20179;-78
2023/06/23 05:49:47;;;;;;;1.17;1.07;;;16.70;99.90;;;;;;5033425;28;20261;-78
2023/06/23 05:52:18;;;;;;;0.90;0.80;;;16.80;99.90;;;;;;5033286;28;20179;-78
2023/06/23 05:54:47;;;;;;;0.90;0.87;;;16.90;99.90;;;;;;5033576;28;20202;-78
2023/06/23 05:57:26;;;;;;;1.30;1.20;;;17.00;99.90;;;;;;5033493;28;20245;-79
2023/06/23 06:00:06;;;;;;;1.67;1.00;;;16.90;99.90;;;;;;5033487;28;20205;-79
2023/06/23 06:02:34;;;;;;;1.47;1.10;;;16.90;99.90;;;;;;5033533;28;20178;-80
2023/06/23 06:05:01;;;;;;;0.90;0.90;;;16.90;99.90;;;;;;5035814;28;20220;-78
2023/06/23 06:07:29;;;;;;;1.33;1.00;;;16.90;99.90;;;;;;5034622;28;20220;-78
2023/06/23 06:09:58;;;;;;;0.80;0.80;;;16.80;99.90;;;;;;5033106;28;20197;-78
2023/06/23 06:12:26;;;;;;;0.80;0.80;;;16.80;99.90;;;;;;5034320;28;20186;-79
2023/06/23 06:14:53;;;;;;;0.77;0.77;;;16.70;99.90;;;;;;5032887;28;20198;-78
2023/06/23 06:17:22;;;;;;;0.60;0.60;;;16.70;99.90;;;;;;5033178;28;20181;-78
2023/06/23 06:19:49;;;;;;;0.90;0.90;;;16.70;99.90;;;;;;5034103;28;20264;-78
2023/06/23 06:22:16;;;;;;;0.93;0.80;;;16.70;99.90;;;;;;5033161;28;20185;-78
2023/06/23 06:24:45;;;;;;;1.20;1.10;;;16.80;99.90;;;;;;5033315;28;20240;-80
2023/06/23 06:27:11;;;;;;;1.20;1.00;;;16.70;99.90;;;;;;5033447;28;20178;-84
2023/06/23 06:29:37;;;;;;;1.00;0.90;;;16.60;99.90;;;;;;5034959;28;20193;-79
2023/06/23 06:32:05;;;;;;;1.20;1.10;;;16.70;99.90;;;;;;5033805;28;20186;-81
2023/06/23 06:34:32;;;;;;;1.00;0.90;;;16.70;99.90;;;;;;5032481;28;20209;-80
2023/06/23 06:37:01;;;;;;;1.03;0.93;;;16.70;99.90;;;;;;5034484;28;20182;-77
2023/06/23 06:39:28;;;;;;;1.20;1.10;;;16.70;99.90;;;;;;5034104;28;20599;-77
2023/06/23 06:41:56;;;;;;;1.20;1.10;;;16.60;99.90;;;;;;5033833;28;20598;-77
2023/06/23 06:44:22;;;;;;;1.20;1.10;;;16.60;99.90;;;;;;5032816;28;20204;-77
2023/06/23 06:46:50;;;;;;;1.17;1.07;;;16.70;99.90;;;;;;5032833;28;20170;-77
2023/06/23 06:49:18;;;;;;;1.13;1.03;;;16.60;99.90;;;;;;5033878;28;20174;-77
2023/06/23 06:51:44;;;;;;;1.53;1.00;;;16.60;99.90;;;;;;5031642;28;20178;-79
2023/06/23 06:54:10;;;;;;;1.20;1.10;;;16.50;99.90;;;;;;5028591;28;20692;-77
2023/06/23 06:56:36;;;;;;;1.00;1.00;;;16.50;99.90;;;;;;5041170;28;20182;-78
2023/06/23 06:59:02;;;;;;;1.10;1.00;;;16.50;99.90;;;;;;5048898;28;20235;-78
2023/06/23 07:01:29;;;;;;;1.10;1.00;;;16.60;99.90;;;;;;5053132;28;20215;-78
2023/06/23 07:03:56;;;;;;;1.20;1.10;;;16.60;99.90;;;;;;5043447;28;20232;-77
2023/06/23 07:06:22;;;;;;;1.20;1.10;;;16.70;99.90;;;;;;5051857;28;20236;-80
2023/06/23 07:08:48;;;;;;;1.17;1.07;;;16.70;99.90;;;;;;5051962;28;20173;-78
2023/06/23 07:11:13;;;;;;;1.20;1.10;;;16.70;99.90;;;;;;5052057;28;20169;-80
2023/06/23 07:13:39;;;;;;;1.40;1.20;;;16.70;99.90;;;;;;5053223;28;20176;-80
2023/06/23 07:16:05;;;;;;;1.20;1.10;;;16.70;99.90;;;;;;5045261;28;20193;-80
2023/06/23 07:18:31;;;;;;;1.50;1.30;;;16.70;99.90;;;;;;5044190;28;20201;-80
2023/06/23 07:20:56;;;;;;;1.20;1.10;;;16.80;99.90;;;;;;5052748;28;20201;-81
2023/06/23 07:23:22;;;;;;;1.60;1.37;;;16.80;99.90;;;;;;5054125;28;20252;-80
2023/06/23 07:25:48;;;;;;;1.77;1.10;;;16.90;99.90;;;;;;5052957;28;20203;-79
2023/06/23 07:28:14;;;;;;;1.63;1.30;;;16.80;99.90;;;;;;5054009;28;20182;-80
2023/06/23 07:30:39;;;;;;;1.57;1.47;;;16.80;99.90;;;;;;5052687;28;20243;-80
2023/06/23 07:33:06;;;;;;;1.33;1.20;;;16.80;99.90;;;;;;5054069;28;20177;-79
2023/06/23 07:35:32;;;;;;;1.50;1.40;;;16.70;99.90;;;;;;5053703;28;20221;-80
2023/06/23 07:37:57;;;;;;;1.20;1.10;;;16.70;99.90;;;;;;5053272;28;20212;-78
2023/06/23 07:40:23;;;;;;;1.93;1.60;;;16.60;99.90;;;;;;5052130;28;20205;-79
2023/06/23 07:42:48;;;;;;;1.80;1.30;;;16.50;99.90;;;;;;5044491;28;20170;-79
2023/06/23 07:45:14;;;;;;;1.43;1.30;;;16.60;99.90;;;;;;5052555;28;20194;-79
2023/06/23 07:47:39;;;;;;;1.50;1.33;;;16.60;99.90;;;;;;5051615;28;20269;-79
2023/06/23 07:50:06;;;;;;;2.47;1.43;;;16.60;99.90;;;;;;5041911;28;20174;-79
2023/06/23 07:52:31;;;;;;;1.90;1.60;;;16.60;99.90;;;;;;5044365;28;20226;-79
2023/06/23 07:54:57;;;;;;;1.87;1.60;;;16.50;99.90;;;;;;5052391;28;20198;-79
2023/06/23 07:57:22;;;;;;;1.60;1.50;;;16.60;99.90;;;;;;5052177;28;20178;-79
2023/06/23 07:59:48;;;;;;;1.90;1.50;;;16.60;99.90;;;;;;5051866;28;20679;-78
2023/06/23 08:02:13;;;;;;;1.63;1.50;;;16.60;99.90;;;;;;5051000;28;20174;-79
2023/06/23 08:04:39;;;;;;;1.77;1.67;;;16.60;90.80;;;;;;5050514;28;20208;-79
2023/06/23 08:07:05;;;;;;;1.50;1.40;;;16.60;80.20;;;;;;5052365;28;20201;-78
2023/06/23 08:09:30;;;;;;;2.33;1.80;;;16.60;60.50;;;;;;5052214;28;20182;-79
2023/06/23 08:11:56;;;;;;;2.20;1.90;;;16.60;88.40;;;;;;5050762;28;20178;-79
2023/06/23 08:14:22;;;;;;;1.70;1.50;;;16.60;69.70;;;;;;5050911;28;20208;-79
2023/06/23 08:16:48;;;;;;;1.90;1.67;;;16.70;1.00;;;;;;5046954;28;20210;-79
2023/06/23 08:19:14;;;;;;;3.40;1.80;;;16.60;1.00;;;;;;5039033;28;20619;-79
2023/06/23 08:21:42;;;;;;;2.43;1.80;;;16.50;36.00;;;;;;5032692;28;20211;-77
2023/06/23 08:24:07;;;;;;;1.83;1.73;;;16.50;82.20;;;;;;5028887;28;20293;-80
2023/06/23 08:26:33;;;;;;;1.90;1.60;;;16.40;99.90;;;;;;5032234;28;20607;-79
2023/06/23 08:28:59;;;;;;;2.30;1.87;;;16.40;99.90;;;;;;5043860;28;20174;-79
2023/06/23 08:31:24;;;;;;;1.60;1.50;;;16.40;99.90;;;;;;5032572;28;20228;-77
2023/06/23 08:33:50;;;;;;;2.40;1.63;;;16.40;99.90;;;;;;5035413;28;20567;-80
2023/06/23 08:36:15;;;;;;;2.30;1.77;;;16.40;99.90;;;;;;5039831;28;20186;-77
2023/06/23 08:38:41;;;;;;;1.67;1.40;;;16.40;99.90;;;;;;5042687;28;20223;-77
2023/06/23 08:41:07;;;;;;;2.27;1.50;;;16.40;99.90;;;;;;5035619;28;20202;-79
2023/06/23 08:43:35;;;;;;;2.10;1.70;;;16.40;99.90;;;;;;5032107;28;20178;-79
2023/06/23 08:46:02;;;;;;;1.93;1.70;;;16.40;99.90;;;;;;5031963;28;20544;-80
2023/06/23 08:48:30;;;;;;;2.03;1.50;;;16.50;99.90;;;;;;5032331;28;20170;-81
2023/06/23 08:50:57;;;;;;;2.10;1.90;;;16.40;99.90;;;;;;5030946;28;20224;-80
2023/06/23 08:53:23;;;;;;;1.70;1.60;;;16.30;99.90;;;;;;5030830;28;20178;-80
2023/06/23 08:55:50;;;;;;;1.50;1.40;;;16.30;99.90;;;;;;5030837;28;20206;-80
2023/06/23 08:58:17;;;;;;;2.33;1.60;;;16.30;99.90;;;;;;5032048;28;20186;-80
2023/06/23 09:00:43;;;;;;;1.57;1.40;;;16.20;99.90;;;;;;5031839;28;20202;-80
2023/06/23 09:03:09;;;;;;;1.50;1.40;;;16.10;99.90;;;;;;5029796;28;20182;-80
2023/06/23 09:05:34;;;;;;;1.67;1.50;;;16.10;99.90;;;;;;5038029;28;20271;-80
2023/06/23 09:08:00;;;;;;;1.87;1.60;;;16.00;99.90;;;;;;5042546;28;20177;-81
2023/06/23 09:10:26;;;;;;;1.50;1.40;;;16.10;99.90;;;;;;5052127;28;20196;-81
2023/06/23 09:13:22;;;;;;;2.13;1.60;;;16.10;99.90;;;;;;5052522;28;20268;-81
2023/06/23 09:15:49;;;;;;;1.60;1.50;;;16.00;99.90;;;;;;5052433;28;20276;-80
2023/06/23 09:18:16;;;;;;;1.60;1.43;;;16.10;99.90;;;;;;5054816;28;20182;-81
2023/06/23 09:20:45;;;;;;;2.50;1.77;;;16.00;99.90;;;;;;5055715;28;20197;-81
2023/06/23 09:23:15;;;;;;;1.97;1.57;;;16.10;99.90;;;;;;5054593;28;20229;-81
2023/06/23 09:25:49;;;;;;;3.73;1.77;;;16.10;99.90;;;;;;5054233;28;20233;-80
2023/06/23 09:28:23;;;;;;;2.37;1.53;;;16.00;99.90;;;;;;5054844;28;20178;-80
2023/06/23 09:30:49;;;;;;;2.47;1.97;;;16.00;99.90;;;;;;5055762;28;20220;-81
2023/06/23 09:33:16;;;;;;;3.27;1.77;;;16.00;99.90;;;;;;5054739;28;20177;-81
2023/06/23 09:35:55;;;;;;;2.67;1.83;;;16.10;99.90;;;;;;5054385;28;20255;-81
2023/06/23 09:38:26;;;;;;;2.20;1.87;;;16.10;99.90;;;;;;5055344;28;20173;-81
2023/06/23 09:41:06;;;;;;;2.03;1.80;;;16.10;99.90;;;;;;5054242;28;20197;-81
2023/06/23 09:43:44;;;;;;;1.97;1.77;;;16.10;99.90;;;;;;5055840;28;20176;-82
2023/06/23 09:46:12;;;;;;;1.97;1.60;;;16.10;99.90;;;;;;5054081;28;20193;-81
2023/06/23 09:48:38;;;;;;;2.37;1.80;;;16.10;99.90;;;;;;5054413;28;20170;-81
2023/06/23 09:51:05;;;;;;;1.87;1.63;;;16.20;99.90;;;;;;5054069;28;20178;-81
2023/06/23 09:53:38;;;;;;;1.97;1.80;;;16.30;99.90;;;;;;5055390;28;20180;-81
2023/06/23 09:56:05;;;;;;;2.03;1.83;;;16.20;99.90;;;;;;5046458;28;20254;-80
2023/06/23 09:58:35;;;;;;;2.00;1.80;;;16.20;99.90;;;;;;5043806;28;20553;-80
2023/06/23 10:01:02;;;;;;;1.70;1.60;;;16.20;99.90;;;;;;5046698;28;20263;-81
2023/06/23 10:03:31;;;;;;;2.33;1.90;;;16.20;99.90;;;;;;5054855;28;20166;-81
2023/06/23 10:05:58;;;;;;;2.00;1.80;;;16.20;99.90;;;;;;5054930;28;20288;-80
2023/06/23 10:08:26;;;;;;;2.23;1.80;;;16.20;99.90;;;;;;5054984;28;20170;-80
2023/06/23 10:10:51;;;;;;;2.27;1.80;;;16.20;99.90;;;;;;5054924;28;20174;-80
2023/06/23 10:13:17;;;;;;;2.00;1.80;;;16.20;99.90;;;;;;5056421;28;20196;-80
2023/06/23 10:15:44;;;;;;;2.30;1.87;;;16.20;99.90;;;;;;5059365;28;20205;-81
2023/06/23 10:18:11;;;;;;;2.10;1.83;;;16.20;99.90;;;;;;5056690;28;20348;-81
2023/06/23 10:20:38;;;;;;;2.27;2.03;;;16.20;99.90;;;;;;5055478;28;20710;-82
2023/06/23 10:23:04;;;;;;;2.03;1.80;;;16.20;99.90;;;;;;5054820;28;20173;-81
2023/06/23 10:25:34;;;;;;;2.30;1.90;;;16.20;99.90;;;;;;5053883;28;20272;-81
2023/06/23 10:28:07;;;;;;;2.10;1.90;;;16.30;99.90;;;;;;5054583;28;20233;-82
2023/06/23 10:30:33;;;;;;;2.27;2.07;;;16.20;99.90;;;;;;5054675;28;20177;-82
2023/06/23 10:33:02;;;;;;;2.07;1.87;;;16.20;99.90;;;;;;5053727;28;20672;-82
2023/06/23 10:35:29;;;;;;;2.33;2.10;;;16.10;99.90;;;;;;5047066;28;20221;-81
2023/06/23 10:38:06;;;;;;;2.50;2.13;;;16.20;99.90;;;;;;5046903;28;20185;-82
2023/06/23 10:40:46;;;;;;;2.20;2.00;;;16.20;99.90;;;;;;5044184;28;20200;-82
2023/06/23 10:43:11;;;;;;;2.27;2.07;;;16.30;99.90;;;;;;5037065;28;20179;-81
2023/06/23 10:45:37;;;;;;;2.67;2.07;;;16.30;99.90;;;;;;5049912;28;20205;-81
2023/06/23 10:48:03;;;;;;;2.40;2.00;;;16.30;99.90;;;;;;5021538;28;20190;-81
2023/06/23 10:50:30;;;;;;;2.33;1.90;;;16.30;99.90;;;;;;5013211;28;20182;-81
2023/06/23 10:53:07;;;;;;;2.30;2.00;;;16.40;99.90;;;;;;5013423;28;20218;-81
2023/06/23 10:55:46;;;;;;;2.60;2.33;;;16.40;99.90;;;;;;5014791;28;20234;-81
2023/06/23 10:58:17;;;;;;;2.63;2.10;;;16.40;99.90;;;;;;5014698;28;20175;-83
2023/06/23 11:00:58;;;;;;;2.30;2.10;;;16.50;99.90;;;;;;5012800;28;20229;-83
2023/06/23 11:03:41;;;;;;;2.07;1.80;;;16.50;99.90;;;;;;5014509;28;20178;-82
2023/06/23 11:06:10;;;;;;;2.40;1.97;;;16.50;99.90;;;;;;5015095;28;20234;-82
2023/06/23 11:08:40;;;;;;;2.60;2.07;;;16.50;99.90;;;;;;5013608;28;20214;-83
2023/06/23 11:11:10;;;;;;;2.20;2.00;;;16.50;99.90;;;;;;5012680;28;20175;-81
2023/06/23 11:13:41;;;;;;;2.87;2.40;;;16.60;99.90;;;;;;5013794;28;20202;-82
2023/06/23 11:16:17;;;;;;;3.10;2.23;;;16.70;99.90;;;;;;5014517;28;20209;-81
2023/06/23 11:18:57;;;;;;;2.33;2.10;;;16.80;99.90;;;;;;5015532;28;20229;-81
2023/06/23 11:21:37;;;;;;;3.27;2.60;;;16.80;99.90;;;;;;5016516;28;20201;-81
2023/06/23 11:24:19;;;;;;;2.87;2.30;;;16.80;99.90;;;;;;5042069;28;20193;-81
2023/06/23 11:26:59;;;;;;;2.73;2.30;;;16.80;99.90;;;;;;5031883;28;20210;-81
2023/06/23 11:29:25;;;;;;;2.30;2.10;;;16.80;99.90;;;;;;5045021;28;20177;-82
2023/06/23 11:32:12;;;;;;;2.93;2.30;;;16.80;99.90;;;;;;5053493;28;20261;-81
2023/06/23 11:34:50;;;;;;;2.60;2.03;;;16.80;99.90;;;;;;5053296;28;20668;-82
2023/06/23 11:37:16;;;;;;;2.83;2.23;;;16.90;99.90;;;;;;5040417;28;20238;-81
2023/06/23 11:39:42;;;;;;;2.80;2.20;;;16.90;99.90;;;;;;5053283;28;20216;-81
2023/06/23 11:42:08;;;;;;;3.37;2.50;;;17.00;99.90;;;;;;5054735;28;20170;-82
2023/06/23 11:44:33;;;;;;;2.80;2.30;;;17.00;99.90;;;;;;5054971;28;20292;-82
2023/06/23 11:47:00;;;;;;;2.70;2.50;;;17.00;99.90;;;;;;5053350;28;20180;-82
2023/06/23 11:49:26;;;;;;;3.00;2.47;;;17.00;99.90;;;;;;5054539;28;20173;-81
2023/06/23 11:51:52;;;;;;;3.03;2.70;;;17.00;99.90;;;;;;5054312;28;20177;-82
2023/06/23 11:54:18;;;;;;;2.80;2.50;;;17.00;99.90;;;;;;5052967;28;20208;-82
2023/06/23 11:56:44;;;;;;;2.30;2.00;;;17.00;99.90;;;;;;5053180;28;20201;-82
2023/06/23 11:59:12;;;;;;;4.07;2.37;;;17.10;90.60;;;;;;5052650;28;20178;-82
2023/06/23 12:01:38;;;;;;;2.80;2.40;;;17.20;18.90;;;;;;5052300;28;20201;-82
2023/06/23 12:04:13;;;;;;;2.97;2.50;;;17.20;1.00;;;;;;5054231;28;20258;-79
2023/06/23 12:06:38;;;;;;;2.90;2.40;;;17.20;99.90;;;;;;5044101;28;20667;-82
2023/06/23 12:09:05;;;;;;;3.30;2.70;;;17.30;1.00;;;;;;5048328;28;20166;-82
2023/06/23 12:11:34;;;;;;;2.73;2.53;;;17.40;1.00;;;;;;5042900;28;20182;-82
2023/06/23 12:13:59;;;;;;;3.60;2.30;;;17.50;1.00;;;;;;5047454;28;20173;-82
2023/06/23 12:16:25;;;;;;;2.87;2.50;;;17.60;1.00;;;;;;5052578;28;20184;-82
2023/06/23 12:18:51;;;;;;;2.83;2.40;;;17.70;1.00;;;;;;5053874;28;20197;-82
2023/06/23 12:21:18;;;;;;;3.10;2.50;;;17.80;1.00;;;;;;5052062;28;20210;-83
2023/06/23 12:23:44;;;;;;;2.60;2.30;;;17.80;1.00;;;;;;5052482;28;20264;-81
2023/06/23 12:26:10;;;;;;;2.80;2.27;;;17.90;1.00;;;;;;5054178;28;20276;-82
2023/06/23 12:28:36;;;;;;;2.90;2.30;;;18.00;1.00;;;;;;5047796;28;20183;-82
2023/06/23 12:31:04;;;;;;;2.57;2.30;;;17.90;99.90;;;;;;5029629;28;20613;-81
2023/06/23 12:33:32;;;;;;;3.00;2.33;;;18.00;99.90;;;;;;5040342;28;20185;-83
2023/06/23 12:36:05;;;;;;;3.27;2.50;;;18.00;1.00;;;;;;5036232;28;20295;-82
2023/06/23 12:38:33;;;;;;;2.80;2.40;;;18.00;99.90;;;;;;5043811;28;20268;-82
2023/06/23 12:41:14;;;;;;;3.33;2.80;;;18.00;1.00;;;;;;5051990;28;20255;-82
2023/06/23 12:43:40;;;;;;;2.50;2.30;;;18.10;1.00;;;;;;5052368;28;20192;-81
2023/06/23 12:46:05;;;;;;;2.60;2.30;;;18.00;99.90;;;;;;5051336;28;20193;-84
2023/06/23 12:48:31;;;;;;;3.20;2.40;;;18.00;1.00;;;;;;5051712;28;20170;-82
2023/06/23 12:50:58;;;;;;;2.90;2.50;;;17.90;99.90;;;;;;5054746;28;20177;-80
2023/06/23 12:53:24;;;;;;;2.60;2.40;;;17.90;1.00;;;;;;5039751;28;20182;-79
2023/06/23 12:55:50;;;;;;;2.80;2.50;;;17.90;99.90;;;;;;5033243;28;20213;-79
2023/06/23 12:58:15;;;;;;;3.80;2.60;;;17.80;1.00;;;;;;5017298;28;20602;-79